No data was retrieved for https://query.yahooapis.com/v1/public/yql?q=select+%2A+from+weather.forecast+where+woeid%3D860853&format=xml&u=c



Visit our other weather sites:

Template documentation
and downloads

And another site



Nearby METAR Reports

   
EBAW - Antwerp
Updated: 18-06-2019 01:20
Clear  
Clear  
   Wind: varies 1 m/s
Wind: varies 1 m/s
Temperature: 18°C
Dew Point: 14°C
Humidity: 78%
Barometer: 1017 hPa
Visibility: More than 10 km
Cloud details: Clear
EBAW 172320Z AUTO VRB02KT CAVOK 18/14 Q1017
EBLG - Liège
Updated: 18-06-2019 01:20
Clear  
Clear  
   Wind: varies 0.5 m/s
Wind: varies 0.5 m/s
Temperature: 19°C
Dew Point: 14°C
Humidity: 73%
Barometer: 1017 hPa
Visibility: More than 10 km
Cloud details: Clear
EBLG 172320Z VRB01KT CAVOK 19/14 Q1017 NOSIG
EBCV - Mons/Bergen
Updated: 18-06-2019 00:55
Clear  
Clear  
   Wind: ESE 1.5 m/s
Wind: ESE 1.5 m/s
Temperature: 16°C
Dew Point: 14°C
Humidity: 88%
Barometer: 1017 hPa
Clouds: Clear
Visibility: More than 10 km
Cloud details: Clear
EBCV 172255Z AUTO 11003KT 9999 NCD 16/14 Q1017 BLU
EHBK - Maastricht
Updated: 18-06-2019 01:25
Partly Cloudy  
Partly Cloudy  
   Wind: South 1.5 m/s
Wind: South 1.5 m/s
Temperature: 17°C
Dew Point: 14°C
Humidity: 83%
Barometer: 1016 hPa
Clouds: Partly Cloudy
Visibility: More than 10 km
Cloud details: Partly Cloudy
EHBK 172325Z AUTO 17003KT 9999 NSC 17/14 Q1016
ELLX - Luxemburg
Updated: 18-06-2019 01:20
Clear  
Clear  
   Wind: NE 3.1 m/s
Wind: NE 3.1 m/s
Temperature: 18°C
Dew Point: 11°C
Humidity: 64%
Barometer: 1017 hPa
Visibility: More than 10 km
Cloud details: Clear
ELLX 172320Z 04006KT CAVOK 18/11 Q1017 NOSIG
EBOS - Oostende
Updated: 18-06-2019 01:20
Clear  
Clear  
   Wind: West 1.5 m/s
Wind: West 1.5 m/s
Temperature: 14°C
Dew Point: 10°C
Humidity: 77%
Barometer: 1018 hPa
Visibility: More than 10 km
Cloud details: Clear
EBOS 172320Z 27003KT 220V290 CAVOK 14/10 Q1018 NOSIG

Script developed by  Saratoga-weather.org Adapted for the template by  Weerstation Leuven

You find our weather info also at:

Weather Underground

Equipment we use:

Weather-station
Davis Vantage Vue

Weather-program
WeatherCat

Provider
one.com

Davis Vantage Vue

WeatherCat

one.com